Terminal Aerodrome Forecast
Issued by NWS Binghamton, NY

Home | Current Version | Previous Version | Text Only | Print | Product List | Glossary On
Versions: 1 2 3 4 5 6 7 8 9 10 11 12 13 14 15 16
000
FTUS41 KBGM 280500
TAFBGM
TAF
KBGM 280533Z 2806/2906 VRB05KT P6SM -SHRA SCT022 OVC040
      TEMPO 2808/2812 5SM -SHRA BR OVC022
     FM281200 23008KT 5SM -SHRA BR OVC025
     FM281500 32015KT 5SM -SHRA BR OVC012
     FM290000 30010KT P6SM BKN035=

USA.gov is the U.S. government's official web portal to all federal, state and local government web resources and services.